Time,TemperatureF,DewpointF,PressureIn,WindDirection,WindDirectionDegrees,WindSpeedMPH,WindSpeedGustMPH,Humidity,HourlyPrecipIn,Conditions,Clouds,dailyrainin,SoftwareType,DateUTC
2013-01-14 00:14:00,9.9,6.0,30.45,WNW,288,0.0,1.0,82,0.00,,,0.00,weatherlink.com 1.10,2013-01-14 06:14:00,
2013-01-14 00:29:00,9.1,5.0,30.44,WNW,288,0.0,0.0,82,0.00,,,0.00,weatherlink.com 1.10,2013-01-14 06:29:00,
2013-01-14 00:44:00,8.4,5.0,30.44,WNW,288,0.0,0.0,84,0.00,,,0.00,weatherlink.com 1.10,2013-01-14 06:44:00,
2013-01-14 00:59:00,8.7,5.0,30.44,WNW,288,0.0,0.0,85,0.00,,,0.00,weatherlink.com 1.10,2013-01-14 06:59:00,
2013-01-14 01:14:00,9.3,5.0,30.45,WNW,287,0.0,2.0,84,0.00,,,0.00,weatherlink.com 1.10,2013-01-14 07:14:00,
2013-01-14 01:29:00,9.8,5.0,30.45,West,268,0.0,1.0,82,0.00,,,0.00,weatherlink.com 1.10,2013-01-14 07:29:00,
2013-01-14 01:44:00,8.5,4.0,30.45,West,268,0.0,1.0,82,0.00,,,0.00,weatherlink.com 1.10,2013-01-14 07:44:00,
2013-01-14 01:59:00,8.8,5.0,30.46,West,274,0.0,2.0,84,0.00,,,0.00,weatherlink.com 1.10,2013-01-14 07:59:00,
2013-01-14 02:14:00,8.7,5.0,30.46,West,274,0.0,0.0,83,0.00,,,0.00,weatherlink.com 1.10,2013-01-14 08:14:00,
2013-01-14 02:29:00,8.9,5.0,30.48,West,274,0.0,1.0,84,0.00,,,0.00,weatherlink.com 1.10,2013-01-14 08:29:00,
2013-01-14 02:44:00,9.0,5.0,30.48,West,274,0.0,0.0,84,0.00,,,0.00,weatherlink.com 1.10,2013-01-14 08:44:00,
2013-01-14 02:59:00,9.4,6.0,30.49,West,274,0.0,0.0,84,0.00,,,0.00,weatherlink.com 1.10,2013-01-14 08:59:00,
2013-01-14 03:14:00,9.1,5.0,30.50,West,274,0.0,0.0,82,0.00,,,0.00,weatherlink.com 1.10,2013-01-14 09:14:00,
2013-01-14 03:29:00,8.6,5.0,30.50,West,274,0.0,0.0,84,0.00,,,0.00,weatherlink.com 1.10,2013-01-14 09:29:00,
2013-01-14 03:44:00,8.6,5.0,30.51,West,274,0.0,0.0,84,0.00,,,0.00,weatherlink.com 1.10,2013-01-14 09:44:00,
2013-01-14 03:59:00,8.4,5.0,30.51,West,274,0.0,0.0,85,0.00,,,0.00,weatherlink.com 1.10,2013-01-14 09:59:00,
2013-01-14 04:14:00,8.5,5.0,30.51,West,274,0.0,0.0,85,0.00,,,0.00,weatherlink.com 1.10,2013-01-14 10:14:00,
2013-01-14 04:29:00,8.5,5.0,30.51,SW,227,0.0,2.0,85,0.00,,,0.00,weatherlink.com 1.10,2013-01-14 10:29:00,
2013-01-14 04:44:00,8.5,5.0,30.50,SW,227,0.0,0.0,85,0.00,,,0.00,weatherlink.com 1.10,2013-01-14 10:44:00,
2013-01-14 04:59:00,8.8,5.0,30.51,SW,227,0.0,0.0,84,0.00,,,0.00,weatherlink.com 1.10,2013-01-14 10:59:00,
2013-01-14 05:15:00,9.0,5.0,30.50,SW,227,0.0,0.0,83,0.00,,,0.00,weatherlink.com 1.10,2013-01-14 11:15:00,
2013-01-14 05:30:00,8.6,5.0,30.51,SW,227,0.0,1.0,83,0.00,,,0.00,weatherlink.com 1.10,2013-01-14 11:30:00,
2013-01-14 05:45:00,8.2,4.0,30.52,SW,227,0.0,0.0,84,0.00,,,0.00,weatherlink.com 1.10,2013-01-14 11:45:00,
2013-01-14 06:00:00,7.7,4.0,30.53,SW,227,0.0,0.0,83,0.00,,,0.00,weatherlink.com 1.10,2013-01-14 12:00:00,
2013-01-14 06:15:00,6.8,3.0,30.54,SW,227,0.0,0.0,83,0.00,,,0.00,weatherlink.com 1.10,2013-01-14 12:15:00,
2013-01-14 06:30:00,6.1,2.0,30.54,SW,227,0.0,0.0,84,0.00,,,0.00,weatherlink.com 1.10,2013-01-14 12:30:00,
2013-01-14 06:45:00,5.9,2.0,30.54,SW,227,0.0,0.0,85,0.00,,,0.00,weatherlink.com 1.10,2013-01-14 12:45:00,
2013-01-14 07:00:00,6.5,3.0,30.54,SW,227,0.0,0.0,86,0.00,,,0.00,weatherlink.com 1.10,2013-01-14 13:00:00,
2013-01-14 07:15:00,6.8,4.0,30.55,SW,227,0.0,0.0,86,0.00,,,0.00,weatherlink.com 1.10,2013-01-14 13:15:00,
2013-01-14 07:30:00,6.6,3.0,30.55,SW,227,0.0,0.0,85,0.00,,,0.00,weatherlink.com 1.10,2013-01-14 13:30:00,
2013-01-14 07:45:00,6.4,3.0,30.55,SW,227,0.0,0.0,86,0.00,,,0.00,weatherlink.com 1.10,2013-01-14 13:45:00,
2013-01-14 08:00:00,6.6,4.0,30.55,SW,227,0.0,0.0,87,0.00,,,0.00,weatherlink.com 1.10,2013-01-14 14:00:00,
2013-01-14 08:15:00,7.9,5.0,30.56,SW,227,0.0,0.0,87,0.00,,,0.00,weatherlink.com 1.10,2013-01-14 14:15:00,
2013-01-14 08:30:00,10.4,7.0,30.56,SW,227,0.0,0.0,87,0.00,,,0.00,weatherlink.com 1.10,2013-01-14 14:30:00,
2013-01-14 08:45:00,12.4,8.0,30.56,WSW,240,1.0,2.0,81,0.00,,,0.00,weatherlink.com 1.10,2013-01-14 14:45:00,
2013-01-14 09:00:00,12.6,8.0,30.57,WSW,242,2.0,3.0,81,0.00,,,0.00,weatherlink.com 1.10,2013-01-14 15:00:00,
2013-01-14 09:15:00,13.9,9.0,30.58,SW,223,2.0,3.0,80,0.00,,,0.00,weatherlink.com 1.10,2013-01-14 15:15:00,
2013-01-14 09:30:00,15.1,10.0,30.57,SSW,212,1.0,3.0,80,0.00,,,0.00,weatherlink.com 1.10,2013-01-14 15:30:00,
2013-01-14 09:45:00,16.9,11.0,30.58,South,182,1.0,4.0,79,0.00,,,0.00,weatherlink.com 1.10,2013-01-14 15:45:00,
2013-01-14 10:00:00,18.6,12.0,30.58,SSE,152,2.0,5.0,76,0.00,,,0.00,weatherlink.com 1.10,2013-01-14 16:00:00,
2013-01-14 10:15:00,20.7,14.0,30.59,South,190,2.0,5.0,74,0.00,,,0.00,weatherlink.com 1.10,2013-01-14 16:15:00,
2013-01-14 10:30:00,21.9,14.0,30.59,SW,228,5.0,8.0,71,0.00,,,0.00,weatherlink.com 1.10,2013-01-14 16:30:00,
2013-01-14 10:45:00,23.1,15.0,30.59,SSW,211,3.0,7.0,70,0.00,,,0.00,weatherlink.com 1.10,2013-01-14 16:45:00,
2013-01-14 11:00:00,24.4,14.0,30.58,SSW,196,6.0,8.0,64,0.00,,,0.00,weatherlink.com 1.10,2013-01-14 17:00:00,
2013-01-14 11:16:00,25.8,15.0,30.58,SSW,205,5.0,8.0,64,0.00,,,0.00,weatherlink.com 1.10,2013-01-14 17:16:00,
2013-01-14 11:31:00,26.0,14.0,30.57,SSW,198,7.0,10.0,62,0.00,,,0.00,weatherlink.com 1.10,2013-01-14 17:31:00,
2013-01-14 11:46:00,26.4,15.0,30.56,SSW,197,4.0,11.0,62,0.00,,,0.00,weatherlink.com 1.10,2013-01-14 17:46:00,
2013-01-14 12:01:00,27.5,14.0,30.55,South,183,7.0,9.0,58,0.00,,,0.00,weatherlink.com 1.10,2013-01-14 18:01:00,
2013-01-14 12:16:00,28.0,14.0,30.54,SW,219,3.0,12.0,55,0.00,,,0.00,weatherlink.com 1.10,2013-01-14 18:16:00,
2013-01-14 12:31:00,28.3,14.0,30.53,West,263,7.0,9.0,55,0.00,,,0.00,weatherlink.com 1.10,2013-01-14 18:31:00,
2013-01-14 12:46:00,28.4,13.0,30.52,West,280,5.0,13.0,53,0.00,,,0.00,weatherlink.com 1.10,2013-01-14 18:46:00,
2013-01-14 13:01:00,28.5,14.0,30.51,WSW,252,3.0,11.0,55,0.00,,,0.00,weatherlink.com 1.10,2013-01-14 19:01:00,
2013-01-14 13:16:00,28.8,13.0,30.50,WSW,248,9.0,10.0,51,0.00,,,0.00,weatherlink.com 1.10,2013-01-14 19:16:00,
2013-01-14 13:31:00,29.2,13.0,30.49,WSW,240,3.0,11.0,50,0.00,,,0.00,weatherlink.com 1.10,2013-01-14 19:31:00,
2013-01-14 13:46:00,29.2,13.0,30.50,West,267,6.0,9.0,51,0.00,,,0.00,weatherlink.com 1.10,2013-01-14 19:46:00,
2013-01-14 14:01:00,29.2,13.0,30.49,WSW,253,3.0,13.0,50,0.00,,,0.00,weatherlink.com 1.10,2013-01-14 20:01:00,
2013-01-14 14:16:00,29.6,12.0,30.50,West,267,2.0,8.0,49,0.00,,,0.00,weatherlink.com 1.10,2013-01-14 20:16:00,
2013-01-14 14:31:00,29.8,14.0,30.50,West,277,6.0,12.0,51,0.00,,,0.00,weatherlink.com 1.10,2013-01-14 20:31:00,
2013-01-14 14:46:00,29.8,13.0,30.50,SSW,192,2.0,8.0,49,0.00,,,0.00,weatherlink.com 1.10,2013-01-14 20:46:00,
2013-01-14 15:01:00,30.4,13.0,30.50,West,264,4.0,9.0,49,0.00,,,0.00,weatherlink.com 1.10,2013-01-14 21:01:00,
2013-01-14 15:16:00,30.1,12.0,30.50,West,268,4.0,7.0,48,0.00,,,0.00,weatherlink.com 1.10,2013-01-14 21:16:00,
2013-01-14 15:31:00,29.8,13.0,30.50,West,273,4.0,9.0,49,0.00,,,0.00,weatherlink.com 1.10,2013-01-14 21:31:00,
2013-01-14 15:46:00,29.7,13.0,30.50,WSW,251,0.0,7.0,50,0.00,,,0.00,weatherlink.com 1.10,2013-01-14 21:46:00,
2013-01-14 16:01:00,29.9,13.0,30.50,West,268,2.0,6.0,49,0.00,,,0.00,weatherlink.com 1.10,2013-01-14 22:01:00,
2013-01-14 16:16:00,29.6,13.0,30.50,SW,230,0.0,6.0,50,0.00,,,0.00,weatherlink.com 1.10,2013-01-14 22:16:00,
2013-01-14 16:31:00,29.4,13.0,30.50,WSW,247,0.0,5.0,51,0.00,,,0.00,weatherlink.com 1.10,2013-01-14 22:31:00,
2013-01-14 16:46:00,29.2,13.0,30.49,WSW,256,4.0,4.0,51,0.00,,,0.00,weatherlink.com 1.10,2013-01-14 22:46:00,
2013-01-14 17:01:00,28.3,13.0,30.49,WSW,246,0.0,4.0,53,0.00,,,0.00,weatherlink.com 1.10,2013-01-14 23:01:00,
2013-01-14 17:16:00,27.3,13.0,30.49,WSW,246,0.0,1.0,55,0.00,,,0.00,weatherlink.com 1.10,2013-01-14 23:16:00,
2013-01-14 17:31:00,26.6,13.0,30.49,SSW,196,0.0,1.0,57,0.00,,,0.00,weatherlink.com 1.10,2013-01-14 23:31:00,
2013-01-14 17:46:00,26.0,13.0,30.49,SSW,196,0.0,2.0,59,0.00,,,0.00,weatherlink.com 1.10,2013-01-14 23:46:00,
2013-01-14 18:01:00,24.9,15.0,30.49,SSW,196,0.0,2.0,65,0.00,,,0.00,weatherlink.com 1.10,2013-01-15 00:01:00,
2013-01-14 18:16:00,23.5,15.0,30.48,SSW,196,0.0,0.0,69,0.00,,,0.00,weatherlink.com 1.10,2013-01-15 00:16:00,
2013-01-14 18:31:00,22.3,15.0,30.49,SSW,196,0.0,0.0,74,0.00,,,0.00,weatherlink.com 1.10,2013-01-15 00:31:00,
2013-01-14 18:46:00,21.4,15.0,30.49,SSW,196,0.0,1.0,77,0.00,,,0.00,weatherlink.com 1.10,2013-01-15 00:46:00,
2013-01-14 19:01:00,20.9,15.0,30.50,SSW,196,0.0,0.0,79,0.00,,,0.00,weatherlink.com 1.10,2013-01-15 01:01:00,
2013-01-14 19:16:00,20.8,15.0,30.50,SSW,196,0.0,0.0,77,0.00,,,0.00,weatherlink.com 1.10,2013-01-15 01:16:00,
2013-01-14 19:31:00,20.0,15.0,30.50,SSE,158,0.0,2.0,79,0.00,,,0.00,weatherlink.com 1.10,2013-01-15 01:31:00,
2013-01-14 19:46:00,19.2,14.0,30.50,SSE,158,0.0,0.0,79,0.00,,,0.00,weatherlink.com 1.10,2013-01-15 01:46:00,
2013-01-14 20:01:00,18.5,14.0,30.50,SSE,158,0.0,0.0,82,0.00,,,0.00,weatherlink.com 1.10,2013-01-15 02:01:00,
2013-01-14 20:16:00,17.7,13.0,30.49,SSE,158,0.0,0.0,83,0.00,,,0.00,weatherlink.com 1.10,2013-01-15 02:16:00,
2013-01-14 20:31:00,17.3,13.0,30.49,SSE,158,0.0,0.0,84,0.00,,,0.00,weatherlink.com 1.10,2013-01-15 02:31:00,
2013-01-14 20:46:00,16.8,13.0,30.49,SSE,158,0.0,0.0,84,0.00,,,0.00,weatherlink.com 1.10,2013-01-15 02:46:00,
2013-01-14 21:01:00,16.7,12.0,30.48,SSE,158,0.0,0.0,82,0.00,,,0.00,weatherlink.com 1.10,2013-01-15 03:01:00,
2013-01-14 21:16:00,16.0,12.0,30.48,SSE,158,0.0,0.0,83,0.00,,,0.00,weatherlink.com 1.10,2013-01-15 03:16:00,
2013-01-14 21:31:00,16.3,12.0,30.48,SSE,158,0.0,1.0,83,0.00,,,0.00,weatherlink.com 1.10,2013-01-15 03:31:00,
2013-01-14 21:46:00,15.3,11.0,30.48,SSE,158,0.0,0.0,82,0.00,,,0.00,weatherlink.com 1.10,2013-01-15 03:46:00,
2013-01-14 22:01:00,14.9,11.0,30.48,SSE,158,0.0,0.0,85,0.00,,,0.00,weatherlink.com 1.10,2013-01-15 04:01:00,
2013-01-14 22:16:00,14.5,11.0,30.48,SSE,158,0.0,0.0,85,0.00,,,0.00,weatherlink.com 1.10,2013-01-15 04:16:00,
2013-01-14 22:31:00,14.5,11.0,30.48,SSE,158,0.0,0.0,87,0.00,,,0.00,weatherlink.com 1.10,2013-01-15 04:31:00,
2013-01-14 22:46:00,14.6,11.0,30.48,SSE,158,0.0,0.0,85,0.00,,,0.00,weatherlink.com 1.10,2013-01-15 04:46:00,
2013-01-14 23:16:00,15.3,11.0,30.48,SSE,158,0.0,0.0,83,0.00,,,0.00,weatherlink.com 1.10,2013-01-15 05:16:00,
2013-01-14 23:31:00,15.3,11.0,30.48,SSE,158,0.0,0.0,83,0.00,,,0.00,weatherlink.com 1.10,2013-01-15 05:31:00,
2013-01-14 23:46:00,14.5,10.0,30.48,SSE,158,0.0,0.0,82,0.00,,,0.00,weatherlink.com 1.10,2013-01-15 05:46:00,